sensor_id;sensor_type;location;lat;lon;timestamp;temperature;humidity
48728;DHT22;34527;45.618;5.130;2022-12-16T00:01:13;3.30;99.90
48728;DHT22;34527;45.618;5.130;2022-12-16T00:03:40;3.20;99.90
48728;DHT22;34527;45.618;5.130;2022-12-16T00:06:07;3.20;99.90
48728;DHT22;34527;45.618;5.130;2022-12-16T00:08:36;3.20;99.90
48728;DHT22;34527;45.618;5.130;2022-12-16T00:11:05;3.20;99.90
48728;DHT22;34527;45.618;5.130;2022-12-16T00:13:33;3.20;99.90
48728;DHT22;34527;45.618;5.130;2022-12-16T00:16:09;3.20;99.90
48728;DHT22;34527;45.618;5.130;2022-12-16T00:18:35;3.20;99.90
48728;DHT22;34527;45.618;5.130;2022-12-16T00:21:02;3.20;99.90
48728;DHT22;34527;45.618;5.130;2022-12-16T00:23:28;3.20;99.90
48728;DHT22;34527;45.618;5.130;2022-12-16T00:25:54;3.10;99.90
48728;DHT22;34527;45.618;5.130;2022-12-16T00:28:20;3.10;99.90
48728;DHT22;34527;45.618;5.130;2022-12-16T00:30:49;3.10;99.90
48728;DHT22;34527;45.618;5.130;2022-12-16T00:33:15;3.10;99.90
48728;DHT22;34527;45.618;5.130;2022-12-16T00:35:42;3.10;99.90
48728;DHT22;34527;45.618;5.130;2022-12-16T00:38:08;3.10;99.90
48728;DHT22;34527;45.618;5.130;2022-12-16T00:40:34;3.10;99.90
48728;DHT22;34527;45.618;5.130;2022-12-16T00:43:00;3.10;99.90
48728;DHT22;34527;45.618;5.130;2022-12-16T00:45:25;3.10;99.90
48728;DHT22;34527;45.618;5.130;2022-12-16T00:47:52;3.20;99.90
48728;DHT22;34527;45.618;5.130;2022-12-16T00:50:18;3.20;99.90
48728;DHT22;34527;45.618;5.130;2022-12-16T00:52:45;3.20;99.90
48728;DHT22;34527;45.618;5.130;2022-12-16T00:55:12;3.20;99.90
48728;DHT22;34527;45.618;5.130;2022-12-16T00:57:38;3.10;99.90
48728;DHT22;34527;45.618;5.130;2022-12-16T01:00:05;3.10;99.90
48728;DHT22;34527;45.618;5.130;2022-12-16T01:02:32;3.10;99.90
48728;DHT22;34527;45.618;5.130;2022-12-16T01:04:57;3.10;99.90
48728;DHT22;34527;45.618;5.130;2022-12-16T01:07:23;3.10;99.90
48728;DHT22;34527;45.618;5.130;2022-12-16T01:09:49;3.20;99.90
48728;DHT22;34527;45.618;5.130;2022-12-16T01:12:15;3.10;99.90
48728;DHT22;34527;45.618;5.130;2022-12-16T01:14:41;3.20;99.90
48728;DHT22;34527;45.618;5.130;2022-12-16T01:17:07;3.10;99.90
48728;DHT22;34527;45.618;5.130;2022-12-16T01:19:32;3.10;99.90
48728;DHT22;34527;45.618;5.130;2022-12-16T01:21:58;3.10;99.90
48728;DHT22;34527;45.618;5.130;2022-12-16T01:24:24;3.10;99.90
48728;DHT22;34527;45.618;5.130;2022-12-16T01:26:50;3.10;99.90
48728;DHT22;34527;45.618;5.130;2022-12-16T01:29:16;3.20;99.90
48728;DHT22;34527;45.618;5.130;2022-12-16T01:31:41;3.10;99.90
48728;DHT22;34527;45.618;5.130;2022-12-16T01:34:08;3.10;99.90
48728;DHT22;34527;45.618;5.130;2022-12-16T01:36:34;3.00;99.90
48728;DHT22;34527;45.618;5.130;2022-12-16T01:39:00;3.00;99.90
48728;DHT22;34527;45.618;5.130;2022-12-16T01:41:25;3.00;99.90
48728;DHT22;34527;45.618;5.130;2022-12-16T01:43:51;3.00;99.90
48728;DHT22;34527;45.618;5.130;2022-12-16T01:46:22;3.00;99.90
48728;DHT22;34527;45.618;5.130;2022-12-16T01:49:07;3.00;99.90
48728;DHT22;34527;45.618;5.130;2022-12-16T01:51:38;3.00;99.90
48728;DHT22;34527;45.618;5.130;2022-12-16T01:54:11;3.00;99.90
48728;DHT22;34527;45.618;5.130;2022-12-16T01:56:42;3.00;99.90
48728;DHT22;34527;45.618;5.130;2022-12-16T01:59:10;3.00;99.90
48728;DHT22;34527;45.618;5.130;2022-12-16T02:01:36;3.00;99.90
48728;DHT22;34527;45.618;5.130;2022-12-16T02:04:03;3.00;99.90
48728;DHT22;34527;45.618;5.130;2022-12-16T02:06:29;3.00;99.90
48728;DHT22;34527;45.618;5.130;2022-12-16T02:08:57;3.00;99.90
48728;DHT22;34527;45.618;5.130;2022-12-16T02:11:54;2.90;99.90
48728;DHT22;34527;45.618;5.130;2022-12-16T02:17:22;2.90;99.90
48728;DHT22;34527;45.618;5.130;2022-12-16T02:33:29;2.70;99.90
48728;DHT22;34527;45.618;5.130;2022-12-16T02:36:07;2.70;99.90
48728;DHT22;34527;45.618;5.130;2022-12-16T02:39:03;2.70;99.90
48728;DHT22;34527;45.618;5.130;2022-12-16T02:41:46;2.60;99.90
48728;DHT22;34527;45.618;5.130;2022-12-16T02:44:14;2.60;99.90
48728;DHT22;34527;45.618;5.130;2022-12-16T02:46:52;2.60;99.90
48728;DHT22;34527;45.618;5.130;2022-12-16T02:51:44;2.60;99.90
48728;DHT22;34527;45.618;5.130;2022-12-16T02:54:11;2.60;99.90
48728;DHT22;34527;45.618;5.130;2022-12-16T02:59:37;2.60;99.90
48728;DHT22;34527;45.618;5.130;2022-12-16T03:02:24;2.60;99.90
48728;DHT22;34527;45.618;5.130;2022-12-16T03:05:00;2.60;99.90
48728;DHT22;34527;45.618;5.130;2022-12-16T03:07:31;2.60;99.90
48728;DHT22;34527;45.618;5.130;2022-12-16T03:09:58;2.60;99.90
48728;DHT22;34527;45.618;5.130;2022-12-16T03:12:26;2.60;99.90
48728;DHT22;34527;45.618;5.130;2022-12-16T03:14:53;2.50;99.90
48728;DHT22;34527;45.618;5.130;2022-12-16T03:17:20;2.50;99.90
48728;DHT22;34527;45.618;5.130;2022-12-16T03:19:55;2.50;99.90
48728;DHT22;34527;45.618;5.130;2022-12-16T03:22:25;2.50;99.90
48728;DHT22;34527;45.618;5.130;2022-12-16T03:24:52;2.50;99.90
48728;DHT22;34527;45.618;5.130;2022-12-16T03:30:15;2.50;99.90
48728;DHT22;34527;45.618;5.130;2022-12-16T03:33:07;2.50;99.90
48728;DHT22;34527;45.618;5.130;2022-12-16T03:35:50;2.50;99.90
48728;DHT22;34527;45.618;5.130;2022-12-16T03:38:19;2.50;99.90
48728;DHT22;34527;45.618;5.130;2022-12-16T03:40:47;2.50;99.90
48728;DHT22;34527;45.618;5.130;2022-12-16T03:43:13;2.50;99.90
48728;DHT22;34527;45.618;5.130;2022-12-16T03:45:41;2.50;99.90
48728;DHT22;34527;45.618;5.130;2022-12-16T03:48:09;2.50;99.90
48728;DHT22;34527;45.618;5.130;2022-12-16T03:50:36;2.50;99.90
48728;DHT22;34527;45.618;5.130;2022-12-16T03:53:02;2.50;99.90
48728;DHT22;34527;45.618;5.130;2022-12-16T03:55:28;2.40;99.90
48728;DHT22;34527;45.618;5.130;2022-12-16T03:57:54;2.40;99.90
48728;DHT22;34527;45.618;5.130;2022-12-16T04:00:22;2.40;99.90
48728;DHT22;34527;45.618;5.130;2022-12-16T04:02:48;2.30;99.90
48728;DHT22;34527;45.618;5.130;2022-12-16T04:05:14;2.40;99.90
48728;DHT22;34527;45.618;5.130;2022-12-16T04:07:40;2.40;99.90
48728;DHT22;34527;45.618;5.130;2022-12-16T04:10:07;2.40;99.90
48728;DHT22;34527;45.618;5.130;2022-12-16T04:12:33;2.40;99.90
48728;DHT22;34527;45.618;5.130;2022-12-16T04:15:18;2.40;99.90
48728;DHT22;34527;45.618;5.130;2022-12-16T04:18:02;2.40;99.90
48728;DHT22;34527;45.618;5.130;2022-12-16T04:20:55;2.30;99.90
48728;DHT22;34527;45.618;5.130;2022-12-16T04:23:54;2.40;99.90
48728;DHT22;34527;45.618;5.130;2022-12-16T04:26:40;2.40;99.90
48728;DHT22;34527;45.618;5.130;2022-12-16T04:29:32;2.40;99.90
48728;DHT22;34527;45.618;5.130;2022-12-16T04:31:59;2.40;99.90
48728;DHT22;34527;45.618;5.130;2022-12-16T04:34:25;2.40;99.90
48728;DHT22;34527;45.618;5.130;2022-12-16T04:36:52;2.40;99.90
48728;DHT22;34527;45.618;5.130;2022-12-16T04:39:36;2.50;99.90
48728;DHT22;34527;45.618;5.130;2022-12-16T04:42:20;2.40;99.90
48728;DHT22;34527;45.618;5.130;2022-12-16T04:45:05;2.40;99.90
48728;DHT22;34527;45.618;5.130;2022-12-16T04:47:49;2.40;99.90
48728;DHT22;34527;45.618;5.130;2022-12-16T04:50:33;2.40;99.90
48728;DHT22;34527;45.618;5.130;2022-12-16T04:53:17;2.40;99.90
48728;DHT22;34527;45.618;5.130;2022-12-16T04:56:02;2.40;99.90
48728;DHT22;34527;45.618;5.130;2022-12-16T04:58:46;2.40;99.90
48728;DHT22;34527;45.618;5.130;2022-12-16T05:01:30;2.40;99.90
48728;DHT22;34527;45.618;5.130;2022-12-16T05:04:14;2.40;99.90
48728;DHT22;34527;45.618;5.130;2022-12-16T05:06:58;2.40;99.90
48728;DHT22;34527;45.618;5.130;2022-12-16T05:09:42;2.40;99.90
48728;DHT22;34527;45.618;5.130;2022-12-16T05:12:26;2.30;99.90
48728;DHT22;34527;45.618;5.130;2022-12-16T05:15:11;2.30;99.90
48728;DHT22;34527;45.618;5.130;2022-12-16T05:17:55;2.30;99.90
48728;DHT22;34527;45.618;5.130;2022-12-16T05:20:39;2.40;99.90
48728;DHT22;34527;45.618;5.130;2022-12-16T05:23:23;2.40;99.90
48728;DHT22;34527;45.618;5.130;2022-12-16T05:26:07;2.40;99.90
48728;DHT22;34527;45.618;5.130;2022-12-16T05:28:51;2.40;99.90
48728;DHT22;34527;45.618;5.130;2022-12-16T05:31:35;2.40;99.90
48728;DHT22;34527;45.618;5.130;2022-12-16T05:34:20;2.40;99.90
48728;DHT22;34527;45.618;5.130;2022-12-16T05:37:04;2.40;99.90
48728;DHT22;34527;45.618;5.130;2022-12-16T05:39:48;2.40;99.90
48728;DHT22;34527;45.618;5.130;2022-12-16T05:42:32;2.40;99.90
48728;DHT22;34527;45.618;5.130;2022-12-16T05:45:16;2.40;99.90
48728;DHT22;34527;45.618;5.130;2022-12-16T05:48:00;2.40;99.90
48728;DHT22;34527;45.618;5.130;2022-12-16T05:50:44;2.30;99.90
48728;DHT22;34527;45.618;5.130;2022-12-16T05:53:29;2.30;99.90
48728;DHT22;34527;45.618;5.130;2022-12-16T05:56:13;2.30;99.90
48728;DHT22;34527;45.618;5.130;2022-12-16T05:58:57;2.30;99.90
48728;DHT22;34527;45.618;5.130;2022-12-16T06:01:41;2.20;99.90
48728;DHT22;34527;45.618;5.130;2022-12-16T06:04:25;2.20;99.90
48728;DHT22;34527;45.618;5.130;2022-12-16T06:07:09;2.20;99.90
48728;DHT22;34527;45.618;5.130;2022-12-16T06:09:53;2.20;99.90
48728;DHT22;34527;45.618;5.130;2022-12-16T06:12:37;2.20;99.90
48728;DHT22;34527;45.618;5.130;2022-12-16T06:15:21;2.20;99.90
48728;DHT22;34527;45.618;5.130;2022-12-16T06:18:05;2.20;99.90
48728;DHT22;34527;45.618;5.130;2022-12-16T06:20:49;2.20;99.90
48728;DHT22;34527;45.618;5.130;2022-12-16T06:23:33;2.10;99.90
48728;DHT22;34527;45.618;5.130;2022-12-16T06:26:18;2.20;99.90
48728;DHT22;34527;45.618;5.130;2022-12-16T06:29:02;2.20;99.90
48728;DHT22;34527;45.618;5.130;2022-12-16T06:31:46;2.20;99.90
48728;DHT22;34527;45.618;5.130;2022-12-16T06:34:30;2.20;99.90
48728;DHT22;34527;45.618;5.130;2022-12-16T06:37:15;2.20;99.90
48728;DHT22;34527;45.618;5.130;2022-12-16T06:39:59;2.20;99.90
48728;DHT22;34527;45.618;5.130;2022-12-16T06:42:43;2.20;99.90
48728;DHT22;34527;45.618;5.130;2022-12-16T06:45:27;2.20;99.90
48728;DHT22;34527;45.618;5.130;2022-12-16T06:48:12;2.20;99.90
48728;DHT22;34527;45.618;5.130;2022-12-16T06:50:56;2.10;99.90
48728;DHT22;34527;45.618;5.130;2022-12-16T06:53:40;2.10;99.90
48728;DHT22;34527;45.618;5.130;2022-12-16T06:56:24;2.10;99.90
48728;DHT22;34527;45.618;5.130;2022-12-16T06:59:08;2.10;99.90
48728;DHT22;34527;45.618;5.130;2022-12-16T07:01:53;2.10;99.90
48728;DHT22;34527;45.618;5.130;2022-12-16T07:04:37;2.10;99.90
48728;DHT22;34527;45.618;5.130;2022-12-16T07:07:21;2.10;99.90
48728;DHT22;34527;45.618;5.130;2022-12-16T07:10:05;2.10;99.90
48728;DHT22;34527;45.618;5.130;2022-12-16T07:12:49;2.10;99.90
48728;DHT22;34527;45.618;5.130;2022-12-16T07:15:34;2.10;99.90
48728;DHT22;34527;45.618;5.130;2022-12-16T07:18:18;2.00;99.90
48728;DHT22;34527;45.618;5.130;2022-12-16T07:21:02;2.00;99.90
48728;DHT22;34527;45.618;5.130;2022-12-16T07:23:47;2.00;99.90
48728;DHT22;34527;45.618;5.130;2022-12-16T07:26:32;2.00;99.90
48728;DHT22;34527;45.618;5.130;2022-12-16T07:29:16;2.00;99.90
48728;DHT22;34527;45.618;5.130;2022-12-16T07:32:00;2.00;99.90
48728;DHT22;34527;45.618;5.130;2022-12-16T07:34:44;2.00;99.90
48728;DHT22;34527;45.618;5.130;2022-12-16T07:37:28;2.00;99.90
48728;DHT22;34527;45.618;5.130;2022-12-16T07:40:12;2.10;99.90
48728;DHT22;34527;45.618;5.130;2022-12-16T07:42:56;2.00;99.90
48728;DHT22;34527;45.618;5.130;2022-12-16T07:45:40;2.00;99.90
48728;DHT22;34527;45.618;5.130;2022-12-16T07:48:24;2.00;99.90
48728;DHT22;34527;45.618;5.130;2022-12-16T07:51:09;2.00;99.90
48728;DHT22;34527;45.618;5.130;2022-12-16T07:53:55;1.90;99.90
48728;DHT22;34527;45.618;5.130;2022-12-16T07:56:44;1.90;99.90
48728;DHT22;34527;45.618;5.130;2022-12-16T07:59:34;1.90;99.90
48728;DHT22;34527;45.618;5.130;2022-12-16T08:02:20;1.90;99.90
48728;DHT22;34527;45.618;5.130;2022-12-16T08:05:04;1.80;99.90
48728;DHT22;34527;45.618;5.130;2022-12-16T08:07:48;1.90;99.90
48728;DHT22;34527;45.618;5.130;2022-12-16T08:10:32;1.80;99.90
48728;DHT22;34527;45.618;5.130;2022-12-16T08:13:16;1.80;99.90
48728;DHT22;34527;45.618;5.130;2022-12-16T08:16:00;1.80;99.90
48728;DHT22;34527;45.618;5.130;2022-12-16T08:18:44;1.90;99.90
48728;DHT22;34527;45.618;5.130;2022-12-16T08:21:28;1.80;99.90
48728;DHT22;34527;45.618;5.130;2022-12-16T08:24:12;1.90;99.90
48728;DHT22;34527;45.618;5.130;2022-12-16T08:26:57;1.90;99.90
48728;DHT22;34527;45.618;5.130;2022-12-16T08:29:41;1.90;99.90
48728;DHT22;34527;45.618;5.130;2022-12-16T08:32:25;1.90;99.90
48728;DHT22;34527;45.618;5.130;2022-12-16T08:35:09;1.90;99.90
48728;DHT22;34527;45.618;5.130;2022-12-16T08:37:55;1.90;99.90
48728;DHT22;34527;45.618;5.130;2022-12-16T08:40:41;1.90;99.90
48728;DHT22;34527;45.618;5.130;2022-12-16T08:43:26;1.90;99.90
48728;DHT22;34527;45.618;5.130;2022-12-16T08:46:12;1.90;99.90
48728;DHT22;34527;45.618;5.130;2022-12-16T08:48:57;1.90;99.90
48728;DHT22;34527;45.618;5.130;2022-12-16T08:51:41;1.90;99.90
48728;DHT22;34527;45.618;5.130;2022-12-16T08:54:25;1.90;99.90
48728;DHT22;34527;45.618;5.130;2022-12-16T08:57:09;1.80;99.90
48728;DHT22;34527;45.618;5.130;2022-12-16T08:59:53;1.80;99.90
48728;DHT22;34527;45.618;5.130;2022-12-16T09:02:37;1.80;99.90
48728;DHT22;34527;45.618;5.130;2022-12-16T09:05:22;1.80;99.90
48728;DHT22;34527;45.618;5.130;2022-12-16T09:08:06;1.80;99.90
48728;DHT22;34527;45.618;5.130;2022-12-16T09:10:50;1.80;99.90
48728;DHT22;34527;45.618;5.130;2022-12-16T09:13:34;1.80;99.90
48728;DHT22;34527;45.618;5.130;2022-12-16T09:16:18;1.80;99.90
48728;DHT22;34527;45.618;5.130;2022-12-16T09:19:02;1.80;99.90
48728;DHT22;34527;45.618;5.130;2022-12-16T09:21:46;1.80;99.90
48728;DHT22;34527;45.618;5.130;2022-12-16T09:24:31;1.90;99.90
48728;DHT22;34527;45.618;5.130;2022-12-16T09:27:15;1.80;99.90
48728;DHT22;34527;45.618;5.130;2022-12-16T09:29:59;1.80;99.90
48728;DHT22;34527;45.618;5.130;2022-12-16T09:32:44;1.80;99.90
48728;DHT22;34527;45.618;5.130;2022-12-16T09:35:28;1.70;99.90
48728;DHT22;34527;45.618;5.130;2022-12-16T09:38:13;1.80;99.90
48728;DHT22;34527;45.618;5.130;2022-12-16T09:44:19;1.70;99.90
48728;DHT22;34527;45.618;5.130;2022-12-16T09:47:25;1.70;99.90
48728;DHT22;34527;45.618;5.130;2022-12-16T09:50:19;1.80;99.90
48728;DHT22;34527;45.618;5.130;2022-12-16T09:53:07;1.80;99.90
48728;DHT22;34527;45.618;5.130;2022-12-16T09:55:53;1.70;99.90
48728;DHT22;34527;45.618;5.130;2022-12-16T09:58:55;1.80;99.90
48728;DHT22;34527;45.618;5.130;2022-12-16T10:01:42;1.70;99.90
48728;DHT22;34527;45.618;5.130;2022-12-16T10:04:27;1.80;99.90
48728;DHT22;34527;45.618;5.130;2022-12-16T10:07:19;1.80;99.90
48728;DHT22;34527;45.618;5.130;2022-12-16T10:13:37;1.80;99.90
48728;DHT22;34527;45.618;5.130;2022-12-16T10:22:32;1.70;99.90
48728;DHT22;34527;45.618;5.130;2022-12-16T10:25:22;1.70;99.90
48728;DHT22;34527;45.618;5.130;2022-12-16T10:30:56;1.70;99.90
48728;DHT22;34527;45.618;5.130;2022-12-16T10:33:42;1.80;99.90
48728;DHT22;34527;45.618;5.130;2022-12-16T10:36:32;1.70;99.90
48728;DHT22;34527;45.618;5.130;2022-12-16T10:39:32;1.70;99.90
48728;DHT22;34527;45.618;5.130;2022-12-16T10:42:25;1.70;99.90
48728;DHT22;34527;45.618;5.130;2022-12-16T10:45:26;1.70;99.90
48728;DHT22;34527;45.618;5.130;2022-12-16T10:48:11;1.70;99.90
48728;DHT22;34527;45.618;5.130;2022-12-16T10:50:58;1.80;99.90
48728;DHT22;34527;45.618;5.130;2022-12-16T10:53:45;1.80;99.90
48728;DHT22;34527;45.618;5.130;2022-12-16T10:57:09;1.80;99.90
48728;DHT22;34527;45.618;5.130;2022-12-16T11:00:18;1.80;99.90
48728;DHT22;34527;45.618;5.130;2022-12-16T11:03:24;1.80;99.90
48728;DHT22;34527;45.618;5.130;2022-12-16T11:09:31;1.90;99.90
48728;DHT22;34527;45.618;5.130;2022-12-16T11:18:17;1.90;99.90
48728;DHT22;34527;45.618;5.130;2022-12-16T11:21:19;2.00;99.90
48728;DHT22;34527;45.618;5.130;2022-12-16T11:24:18;1.90;99.90
48728;DHT22;34527;45.618;5.130;2022-12-16T11:27:29;1.90;99.90
48728;DHT22;34527;45.618;5.130;2022-12-16T11:30:24;1.90;99.90
48728;DHT22;34527;45.618;5.130;2022-12-16T11:33:24;1.90;99.90
48728;DHT22;34527;45.618;5.130;2022-12-16T11:36:19;2.00;99.90
48728;DHT22;34527;45.618;5.130;2022-12-16T11:39:12;2.00;99.90
48728;DHT22;34527;45.618;5.130;2022-12-16T11:42:05;2.00;99.90
48728;DHT22;34527;45.618;5.130;2022-12-16T11:45:00;2.10;99.90
48728;DHT22;34527;45.618;5.130;2022-12-16T11:47:57;2.00;99.90
48728;DHT22;34527;45.618;5.130;2022-12-16T11:50:51;2.10;99.90
48728;DHT22;34527;45.618;5.130;2022-12-16T11:56:35;2.00;99.90
48728;DHT22;34527;45.618;5.130;2022-12-16T12:02:28;2.00;99.90
48728;DHT22;34527;45.618;5.130;2022-12-16T12:05:13;2.10;99.90
48728;DHT22;34527;45.618;5.130;2022-12-16T12:08:27;2.00;99.90
48728;DHT22;34527;45.618;5.130;2022-12-16T12:11:21;2.00;99.90
48728;DHT22;34527;45.618;5.130;2022-12-16T12:17:07;2.00;99.90
48728;DHT22;34527;45.618;5.130;2022-12-16T12:20:45;2.00;99.90
48728;DHT22;34527;45.618;5.130;2022-12-16T12:26:32;2.00;99.90
48728;DHT22;34527;45.618;5.130;2022-12-16T12:35:33;1.90;99.90
48728;DHT22;34527;45.618;5.130;2022-12-16T12:38:59;1.90;99.90
48728;DHT22;34527;45.618;5.130;2022-12-16T12:45:00;1.80;99.90
48728;DHT22;34527;45.618;5.130;2022-12-16T12:48:13;1.80;99.90
48728;DHT22;34527;45.618;5.130;2022-12-16T12:51:10;1.90;99.90
48728;DHT22;34527;45.618;5.130;2022-12-16T12:54:22;1.90;99.90
48728;DHT22;34527;45.618;5.130;2022-12-16T12:57:12;1.90;99.90
48728;DHT22;34527;45.618;5.130;2022-12-16T13:00:05;1.90;99.90
48728;DHT22;34527;45.618;5.130;2022-12-16T13:03:00;1.90;99.90
48728;DHT22;34527;45.618;5.130;2022-12-16T13:05:48;1.90;99.90
48728;DHT22;34527;45.618;5.130;2022-12-16T13:11:32;1.90;99.90
48728;DHT22;34527;45.618;5.130;2022-12-16T13:17:13;1.90;99.90
48728;DHT22;34527;45.618;5.130;2022-12-16T13:19:57;1.90;99.90
48728;DHT22;34527;45.618;5.130;2022-12-16T13:22:43;1.90;99.90
48728;DHT22;34527;45.618;5.130;2022-12-16T13:28:27;1.90;99.90
48728;DHT22;34527;45.618;5.130;2022-12-16T13:31:13;1.90;99.90
48728;DHT22;34527;45.618;5.130;2022-12-16T13:34:04;1.90;99.90
48728;DHT22;34527;45.618;5.130;2022-12-16T13:36:54;1.90;99.90
48728;DHT22;34527;45.618;5.130;2022-12-16T13:39:41;1.90;99.90
48728;DHT22;34527;45.618;5.130;2022-12-16T13:48:49;1.90;99.90
48728;DHT22;34527;45.618;5.130;2022-12-16T13:54:30;1.70;99.90
48728;DHT22;34527;45.618;5.130;2022-12-16T13:57:18;1.80;99.90
48728;DHT22;34527;45.618;5.130;2022-12-16T14:00:05;1.80;99.90
48728;DHT22;34527;45.618;5.130;2022-12-16T14:02:58;1.70;99.90
48728;DHT22;34527;45.618;5.130;2022-12-16T14:05:50;1.70;99.90
48728;DHT22;34527;45.618;5.130;2022-12-16T14:08:42;1.60;99.90
48728;DHT22;34527;45.618;5.130;2022-12-16T14:15:07;1.60;99.90
48728;DHT22;34527;45.618;5.130;2022-12-16T14:18:05;1.60;99.90
48728;DHT22;34527;45.618;5.130;2022-12-16T14:21:02;1.50;99.90
48728;DHT22;34527;45.618;5.130;2022-12-16T14:24:04;1.60;99.90
48728;DHT22;34527;45.618;5.130;2022-12-16T14:26:52;1.70;99.90
48728;DHT22;34527;45.618;5.130;2022-12-16T14:29:37;1.60;99.90
48728;DHT22;34527;45.618;5.130;2022-12-16T14:35:19;1.60;99.90
48728;DHT22;34527;45.618;5.130;2022-12-16T14:38:25;1.60;99.90
48728;DHT22;34527;45.618;5.130;2022-12-16T14:41:20;1.60;99.90
48728;DHT22;34527;45.618;5.130;2022-12-16T14:44:17;1.60;99.90
48728;DHT22;34527;45.618;5.130;2022-12-16T14:47:02;1.50;99.90
48728;DHT22;34527;45.618;5.130;2022-12-16T14:49:50;1.60;99.90
48728;DHT22;34527;45.618;5.130;2022-12-16T14:52:35;1.60;99.90
48728;DHT22;34527;45.618;5.130;2022-12-16T14:58:12;1.50;99.90
48728;DHT22;34527;45.618;5.130;2022-12-16T15:01:18;1.50;99.90
48728;DHT22;34527;45.618;5.130;2022-12-16T15:04:07;1.40;99.90
48728;DHT22;34527;45.618;5.130;2022-12-16T15:06:56;1.50;99.90
48728;DHT22;34527;45.618;5.130;2022-12-16T15:09:47;1.50;99.90
48728;DHT22;34527;45.618;5.130;2022-12-16T15:12:39;1.50;99.90
48728;DHT22;34527;45.618;5.130;2022-12-16T15:15:37;1.60;99.90
48728;DHT22;34527;45.618;5.130;2022-12-16T15:18:35;1.60;99.90
48728;DHT22;34527;45.618;5.130;2022-12-16T15:21:21;1.50;99.90
48728;DHT22;34527;45.618;5.130;2022-12-16T15:24:14;1.50;99.90
48728;DHT22;34527;45.618;5.130;2022-12-16T15:27:35;1.50;99.90
48728;DHT22;34527;45.618;5.130;2022-12-16T15:30:37;1.50;99.90
48728;DHT22;34527;45.618;5.130;2022-12-16T15:33:24;1.50;99.90
48728;DHT22;34527;45.618;5.130;2022-12-16T15:36:31;1.50;99.90
48728;DHT22;34527;45.618;5.130;2022-12-16T15:39:36;1.60;99.90
48728;DHT22;34527;45.618;5.130;2022-12-16T15:42:29;1.50;99.90
48728;DHT22;34527;45.618;5.130;2022-12-16T15:45:26;1.50;99.90
48728;DHT22;34527;45.618;5.130;2022-12-16T15:51:03;1.50;99.90
48728;DHT22;34527;45.618;5.130;2022-12-16T15:54:01;1.50;99.90
48728;DHT22;34527;45.618;5.130;2022-12-16T15:56:45;1.50;99.90
48728;DHT22;34527;45.618;5.130;2022-12-16T15:59:33;1.50;99.90
48728;DHT22;34527;45.618;5.130;2022-12-16T16:02:26;1.60;99.90
48728;DHT22;34527;45.618;5.130;2022-12-16T16:05:23;1.60;99.90
48728;DHT22;34527;45.618;5.130;2022-12-16T16:08:10;1.70;99.90
48728;DHT22;34527;45.618;5.130;2022-12-16T16:10:55;1.60;99.90
48728;DHT22;34527;45.618;5.130;2022-12-16T16:13:40;1.60;99.90
48728;DHT22;34527;45.618;5.130;2022-12-16T16:16:24;1.60;99.90
48728;DHT22;34527;45.618;5.130;2022-12-16T16:19:12;1.60;99.90
48728;DHT22;34527;45.618;5.130;2022-12-16T16:21:59;1.60;99.90
48728;DHT22;34527;45.618;5.130;2022-12-16T16:24:43;1.60;99.90
48728;DHT22;34527;45.618;5.130;2022-12-16T16:27:27;1.60;99.90
48728;DHT22;34527;45.618;5.130;2022-12-16T16:30:12;1.60;99.90
48728;DHT22;34527;45.618;5.130;2022-12-16T16:32:56;1.60;99.90
48728;DHT22;34527;45.618;5.130;2022-12-16T16:35:41;1.60;99.90
48728;DHT22;34527;45.618;5.130;2022-12-16T16:38:25;1.60;99.90
48728;DHT22;34527;45.618;5.130;2022-12-16T16:41:13;1.60;99.90
48728;DHT22;34527;45.618;5.130;2022-12-16T16:43:57;1.60;99.90
48728;DHT22;34527;45.618;5.130;2022-12-16T16:46:41;1.60;99.90
48728;DHT22;34527;45.618;5.130;2022-12-16T16:49:52;1.60;99.90
48728;DHT22;34527;45.618;5.130;2022-12-16T16:52:36;1.60;99.90
48728;DHT22;34527;45.618;5.130;2022-12-16T16:55:22;1.60;99.90
48728;DHT22;34527;45.618;5.130;2022-12-16T16:58:44;1.60;99.90
48728;DHT22;34527;45.618;5.130;2022-12-16T17:01:21;1.60;99.90
48728;DHT22;34527;45.618;5.130;2022-12-16T17:04:05;1.60;99.90
48728;DHT22;34527;45.618;5.130;2022-12-16T17:06:50;1.50;99.90
48728;DHT22;34527;45.618;5.130;2022-12-16T17:09:34;1.50;99.90
48728;DHT22;34527;45.618;5.130;2022-12-16T17:12:21;1.50;99.90
48728;DHT22;34527;45.618;5.130;2022-12-16T17:17:59;1.40;99.90
48728;DHT22;34527;45.618;5.130;2022-12-16T17:20:43;1.40;99.90
48728;DHT22;34527;45.618;5.130;2022-12-16T17:23:27;1.50;99.90
48728;DHT22;34527;45.618;5.130;2022-12-16T17:26:12;1.50;99.90
48728;DHT22;34527;45.618;5.130;2022-12-16T17:28:56;1.50;99.90
48728;DHT22;34527;45.618;5.130;2022-12-16T17:31:40;1.50;99.90
48728;DHT22;34527;45.618;5.130;2022-12-16T17:34:24;1.40;99.90
48728;DHT22;34527;45.618;5.130;2022-12-16T17:37:08;1.40;99.90
48728;DHT22;34527;45.618;5.130;2022-12-16T17:39:52;1.40;99.90
48728;DHT22;34527;45.618;5.130;2022-12-16T17:42:36;1.40;99.90
48728;DHT22;34527;45.618;5.130;2022-12-16T17:45:21;1.40;99.90
48728;DHT22;34527;45.618;5.130;2022-12-16T17:48:05;1.40;99.90
48728;DHT22;34527;45.618;5.130;2022-12-16T17:50:49;1.50;99.90
48728;DHT22;34527;45.618;5.130;2022-12-16T17:53:33;1.40;99.90
48728;DHT22;34527;45.618;5.130;2022-12-16T17:56:19;1.50;99.90
48728;DHT22;34527;45.618;5.130;2022-12-16T17:59:04;1.50;99.90
48728;DHT22;34527;45.618;5.130;2022-12-16T18:01:48;1.40;99.90
48728;DHT22;34527;45.618;5.130;2022-12-16T18:04:32;1.40;99.90
48728;DHT22;34527;45.618;5.130;2022-12-16T18:07:16;1.50;99.90
48728;DHT22;34527;45.618;5.130;2022-12-16T18:10:00;1.40;99.90
48728;DHT22;34527;45.618;5.130;2022-12-16T18:12:44;1.50;99.90
48728;DHT22;34527;45.618;5.130;2022-12-16T18:15:28;1.50;99.90
48728;DHT22;34527;45.618;5.130;2022-12-16T18:18:12;1.50;99.90
48728;DHT22;34527;45.618;5.130;2022-12-16T18:21:10;1.50;99.90
48728;DHT22;34527;45.618;5.130;2022-12-16T18:23:56;1.40;99.90
48728;DHT22;34527;45.618;5.130;2022-12-16T18:26:40;1.40;99.90
48728;DHT22;34527;45.618;5.130;2022-12-16T18:29:24;1.40;99.90
48728;DHT22;34527;45.618;5.130;2022-12-16T18:32:09;1.40;99.90
48728;DHT22;34527;45.618;5.130;2022-12-16T18:34:53;1.40;99.90
48728;DHT22;34527;45.618;5.130;2022-12-16T18:37:37;1.40;99.90
48728;DHT22;34527;45.618;5.130;2022-12-16T18:40:26;1.40;99.90
48728;DHT22;34527;45.618;5.130;2022-12-16T18:43:10;1.50;99.90
48728;DHT22;34527;45.618;5.130;2022-12-16T18:45:54;1.50;99.90
48728;DHT22;34527;45.618;5.130;2022-12-16T18:48:39;1.50;99.90
48728;DHT22;34527;45.618;5.130;2022-12-16T18:51:23;1.50;99.90
48728;DHT22;34527;45.618;5.130;2022-12-16T18:54:07;1.50;99.90
48728;DHT22;34527;45.618;5.130;2022-12-16T18:56:52;1.50;99.90
48728;DHT22;34527;45.618;5.130;2022-12-16T18:59:36;1.50;99.90
48728;DHT22;34527;45.618;5.130;2022-12-16T19:02:20;1.50;99.90
48728;DHT22;34527;45.618;5.130;2022-12-16T19:05:05;1.50;99.90
48728;DHT22;34527;45.618;5.130;2022-12-16T19:07:49;1.60;99.90
48728;DHT22;34527;45.618;5.130;2022-12-16T19:10:33;1.50;99.90
48728;DHT22;34527;45.618;5.130;2022-12-16T19:13:17;1.50;99.90